x

Susquehanna, Md (44057) Weather Station

9:20pm - Mon 20th Nov 2017 All times are EST. -5 hours from GMT.

  • Wind
  • Air Temp 44°f
  • Sea Pressure 1021.6mb
  • Susquehanna, Md
  • Susquehanna, Md

More Historic Weather Station data

Upgrade to MSW Pro to gain access to the past 30 days of data for over 8000 Wavebouys and Weather Stations around the globe.

Join

Comparision Forecast

View Surf forecast
   
Mon 11/20 9:20pm  -  2 mph 1021.6mb - 44f
9:10pm  -  4 mph 1021.6mb - 44f
9:00pm  -  2 mph 1021.5mb 47f 44f
8:50pm 2 4 mph 1021.4mb - 44f
8:40pm  -  4 mph 1021.5mb - 44f
8:30pm  -  2 mph 1021.5mb - 44f
8:20pm 2 4 mph 1021.5mb - 45f
8:10pm 4 4 mph 1021.4mb - 46f
8:00pm 4 7 mph 1021.4mb 47f 46f
7:50pm 2 7 mph 1021.5mb - 46f
7:40pm 2 2 mph 1021.4mb - 45f
7:30pm 2 2 mph 1021.5mb - 45f
7:20pm 2 4 mph 1021.4mb - 45f
7:10pm 2 4 mph 1021.4mb - 45f
7:00pm 4 4 mph 1021.2mb 47f 46f
6:50pm 2 4 mph 1021.2mb - 46f
6:40pm 4 4 mph 1021.2mb - 46f
6:30pm 4 7 mph 1021.1mb - 46f
6:20pm 9 11 mph 1021.1mb - 47f
6:10pm 11 13 mph 1021.1mb - 47f
6:00pm 9 18 mph 1021.1mb 47f 47f
5:50pm 4 9 mph 1021mb - 47f
5:40pm 7 11 mph 1020.8mb - 47f
5:30pm 9 9 mph 1020.9mb - 47f
5:20pm 7 9 mph 1021.1mb - 47f
5:10pm 9 9 mph 1021.1mb - 47f
5:00pm 9 11 mph 1021.2mb 47f 47f
4:50pm 7 9 mph 1021.3mb - 47f
4:40pm 7 9 mph 1021.3mb - 48f
4:30pm 11 16 mph 1021.3mb - 48f
4:20pm 11 16 mph 1021.3mb - 48f
4:10pm 13 18 mph 1021.4mb - 48f
4:00pm 13 18 mph 1021.3mb 47f 48f
3:50pm 13 20 mph 1021.3mb - 48f
3:40pm 13 20 mph 1021.3mb - 48f
3:30pm 16 18 mph 1021.3mb - 48f
3:20pm 16 22 mph 1021.1mb - 48f
3:10pm 13 18 mph 1020.9mb - 48f
3:00pm 11 18 mph 1020.9mb 47f 48f
2:50pm 13 20 mph 1020.8mb - 47f
2:40pm 11 18 mph 1020.9mb - 47f
2:30pm 13 20 mph 1020.8mb - 47f
2:20pm 13 18 mph 1020.7mb - 47f
2:10pm 13 18 mph 1020.8mb - 47f
2:00pm 11 20 mph 1020.7mb 47f 47f
1:50pm 13 20 mph 1020.7mb - 46f
1:40pm 11 18 mph 1020.8mb - 46f
1:30pm 11 18 mph 1020.8mb - 46f
1:20pm 9 16 mph 1020.8mb - 46f
1:10pm 11 20 mph 1020.7mb - 46f
1:00pm 11 20 mph 1020.8mb 47f 46f
12:50pm 11 18 mph 1020.8mb - 45f
12:40pm 13 22 mph 1020.9mb - 45f
12:30pm 13 20 mph 1021mb - 44f
12:20pm 11 20 mph 1020.9mb - 44f
12:10pm 11 16 mph 1020.8mb - 44f
12:00pm 13 18 mph 1021mb 47f 44f
11:50am 11 16 mph 1021.1mb - 43f
11:40am 13 20 mph 1021.3mb - 43f
11:30am 13 20 mph 1021.6mb - 43f
11:20am 13 22 mph 1021.7mb - 43f
11:10am 13 18 mph 1021.7mb - 42f
11:00am 13 18 mph 1021.7mb 47f 42f
10:50am 16 22 mph 1021.7mb - 42f
10:40am 16 22 mph 1021.8mb - 42f
10:30am 16 25 mph 1021.7mb - 42f
10:20am 13 22 mph 1021.8mb - 42f
10:10am 13 20 mph 1021.9mb - 42f
10:00am 16 27 mph 1021.8mb 48f 41f
9:50am 18 27 mph 1021.6mb - 41f
9:40am 18 27 mph 1021.4mb - 41f
9:30am 20 27 mph 1021.3mb - 41f
9:20am 18 31 mph 1021.1mb - 41f
9:10am 18 25 mph 1021mb - 40f
9:00am 16 22 mph 1020.9mb 47f 40f
8:50am 16 27 mph 1020.9mb - 40f
8:40am 20 29 mph 1020.9mb - 40f
8:30am 18 29 mph 1020.9mb - 40f
8:20am 18 25 mph 1020.8mb - 40f
8:10am 13 22 mph 1020.8mb - 39f
8:00am 13 18 mph 1020.7mb 47f 39f
7:50am 11 18 mph 1020.6mb - 39f
7:40am 9 16 mph 1020.4mb - 38f
7:30am 9 11 mph 1020.2mb - 38f
7:20am 9 13 mph 1019.9mb - 38f
7:10am 9 13 mph 1019.8mb - 38f
7:00am 11 13 mph 1019.7mb 47f 38f
6:50am 9 13 mph 1019.6mb - 38f
6:40am 11 16 mph 1019.5mb - 38f
6:30am 11 13 mph 1019.4mb - 38f
6:20am 9 11 mph 1019.2mb - 38f
6:10am 9 11 mph 1019mb - 38f
6:00am 9 11 mph 1018.8mb 47f 38f
5:50am 11 18 mph 1018.6mb - 39f
5:40am 13 22 mph 1018.5mb - 39f
5:30am 13 18 mph 1018.4mb - 38f
5:20am 11 18 mph 1018.2mb - 38f
5:10am 13 18 mph 1018.1mb - 38f
5:00am 13 16 mph 1017.9mb 47f 39f
4:50am 13 20 mph 1017.7mb - 39f
4:40am 16 18 mph 1017.6mb - 39f
4:30am 16 25 mph 1017.4mb - 39f
4:20am 16 22 mph 1017.2mb - 39f
4:10am 13 20 mph 1017.1mb - 39f
4:00am 16 25 mph 1016.9mb 48f 39f
3:50am 11 22 mph 1016.8mb - 39f
3:40am 11 13 mph 1016.8mb - 39f
3:30am 9 16 mph 1016.7mb - 40f
3:20am 11 16 mph 1016.6mb - 40f
3:10am 13 16 mph 1016.4mb - 40f
3:00am 13 20 mph 1016.3mb 48f 40f
2:50am 13 20 mph 1016.2mb - 40f
2:40am 16 20 mph 1016.1mb - 40f
2:30am 16 18 mph 1015.9mb - 40f
2:20am 18 22 mph 1015.6mb - 41f
2:10am 18 25 mph 1015.4mb - 41f
2:00am 18 25 mph 1015.3mb 48f 41f
1:50am 18 25 mph 1015.2mb - 41f
1:40am 16 25 mph 1015mb - 42f
1:30am 16 22 mph 1014.8mb - 42f
1:20am 18 27 mph 1014.6mb - 42f
1:10am 16 27 mph 1014.3mb - 42f
1:00am 11 16 mph 1014.1mb 48f 42f
12:50am 11 16 mph 1013.9mb - 42f
12:40am 11 13 mph 1013.8mb - 42f
12:30am 11 13 mph 1013.8mb - 42f
12:20am 11 13 mph 1013.7mb - 42f
12:10am 11 16 mph 1013.6mb - 42f
12:00am 11 13 mph 1013.5mb 48f 42f
Sun 11/19 11:50pm 11 13 mph 1013.4mb - 42f
11:40pm 11 13 mph 1013.1mb - 42f
11:30pm 11 13 mph 1013mb - 42f
11:20pm 11 13 mph 1012.9mb - 42f
11:10pm 11 13 mph 1012.9mb - 42f
11:00pm 11 13 mph 1012.9mb 47f 42f
10:50pm 11 13 mph 1012.9mb - 42f
10:40pm 9 13 mph 1012.8mb - 42f
10:30pm 9 11 mph 1012.8mb - 42f
10:20pm 11 13 mph 1012.6mb - 42f
10:10pm 11 13 mph 1012.5mb - 42f
10:00pm 11 16 mph 1012.1mb 47f 42f
9:50pm 9 16 mph 1012mb - 42f
9:40pm 11 13 mph 1012.2mb - 43f
9:30pm 11 16 mph 1012.1mb - 43f
9:20pm 13 16 mph 1012mb - 43f
9:10pm 11 16 mph 1011.7mb - 43f
9:00pm 11 13 mph 1011.6mb 47f 43f
8:50pm 11 13 mph 1011.5mb - 43f
8:40pm 11 16 mph 1011.4mb - 43f
8:30pm 11 18 mph 1011.1mb - 43f
8:20pm 11 16 mph 1011.1mb - 43f
8:10pm 13 20 mph 1011mb - 44f
8:00pm 11 18 mph 1010.9mb 47f 44f
7:50pm 11 16 mph 1010.8mb - 44f
7:40pm 13 18 mph 1010.7mb - 44f
7:30pm 16 20 mph 1010.6mb - 45f
7:20pm 11 20 mph 1010.5mb - 45f
7:10pm 11 18 mph 1010.5mb - 45f
7:00pm 13 18 mph 1010.2mb 47f 45f
6:50pm 13 20 mph 1010mb - 45f
6:40pm 18 34 mph 1009.9mb - 46f
6:30pm 16 27 mph 1009.7mb - 46f
6:20pm 20 31 mph 1009.3mb - 46f
6:10pm 20 29 mph 1009.2mb - 46f
6:00pm 16 22 mph 1009.1mb 47f 46f
5:50pm 18 25 mph 1008.9mb - 46f
5:40pm 16 27 mph 1008.7mb - 46f
5:30pm 18 27 mph 1008.6mb - 46f
5:20pm 13 22 mph 1008.4mb - 46f
5:10pm 16 25 mph 1008.3mb - 46f
5:00pm 16 22 mph 1008.1mb 47f 47f
4:50pm 16 22 mph 1008mb - 47f
4:40pm 16 25 mph 1007.7mb - 47f
4:30pm 16 25 mph 1007.6mb - 47f
4:20pm 16 25 mph 1007.6mb - 47f
4:10pm 18 27 mph 1007.4mb - 47f
4:00pm 20 29 mph 1007.2mb 47f 47f
3:50pm 20 29 mph 1006.9mb - 47f
3:40pm 22 31 mph 1006.8mb - 48f
3:30pm 22 34 mph 1006.7mb - 48f
3:20pm 22 38 mph 1006.3mb - 49f
3:10pm 25 34 mph 1006mb - 49f
3:00pm 25 34 mph 1005.8mb 47f 49f
2:50pm 25 36 mph 1005.5mb - 50f
2:40pm 20 31 mph 1005.2mb - 50f
2:30pm 22 31 mph 1005mb - 50f
2:20pm 25 31 mph 1004.9mb - 50f
2:10pm 27 40 mph 1004.9mb - 50f
2:00pm 25 31 mph 1004.8mb 47f 50f
1:50pm 22 34 mph 1004.7mb - 51f
1:40pm 18 25 mph 1004.6mb - 51f
1:30pm 20 29 mph 1004.6mb - 51f
1:20pm 22 36 mph 1004.5mb - 52f
1:10pm 25 34 mph 1004.3mb - 51f
1:00pm 25 36 mph 1004.3mb 47f 51f
12:50pm 25 36 mph 1004.4mb - 51f
12:40pm 25 34 mph 1004.4mb - 51f
12:30pm 25 38 mph 1004.2mb - 51f
12:20pm 22 34 mph 1004.1mb - 51f
12:10pm 20 29 mph 1004.1mb - 51f
12:00pm 25 34 mph 1004.2mb 47f 51f
11:50am 22 34 mph 1004.3mb - 51f
11:40am 25 36 mph 1004.2mb - 51f
11:30am 22 31 mph 1004.1mb - 51f
11:20am 25 36 mph 1003.9mb - 51f
11:10am 22 36 mph 1003.7mb - 51f
11:00am 25 38 mph 1003.5mb 47f 51f
10:50am 27 36 mph 1003.5mb - 51f
10:40am 22 34 mph 1003.4mb - 51f
10:30am 27 38 mph 1003.2mb - 51f
10:20am 25 36 mph 1002.9mb - 51f
10:10am 22 31 mph 1002.6mb - 51f
10:00am 22 31 mph 1002.4mb 47f 51f
Fri 11/17 3:10pm 13 16 mph 1020.4mb - 49f
3:00pm 13 18 mph 1020.3mb 48f 49f
2:50pm 13 18 mph 1020.2mb - 49f
2:40pm 11 16 mph 1020.3mb - 49f
2:30pm 13 22 mph 1020.4mb - 49f
2:20pm 16 20 mph 1020.4mb - 49f
2:10pm 16 20 mph 1020.5mb - 48f
2:00pm 16 18 mph 1020.4mb 47f 48f
1:50pm 16 18 mph 1020.6mb - 48f
1:40pm 13 18 mph 1020.7mb - 48f
1:30pm 13 18 mph 1020.8mb - 48f
1:20pm 16 20 mph 1020.8mb - 47f
1:10pm 16 20 mph 1021mb - 47f
1:00pm 16 22 mph 1021mb 47f 47f
12:50pm 18 22 mph 1021.1mb - 47f
12:40pm 16 20 mph 1021.3mb - 47f
12:30pm 18 22 mph 1021.3mb - 46f
12:20pm 18 22 mph 1021.5mb - 46f
12:10pm 18 22 mph 1021.5mb - 46f
12:00pm 18 25 mph 1021.7mb 47f 46f
11:50am 18 25 mph 1021.7mb - 46f
11:40am 18 22 mph 1021.8mb - 46f
11:30am 16 20 mph 1022mb - 46f
11:20am 16 20 mph 1022.1mb - 45f
11:10am 18 22 mph 1022.3mb - 45f
11:00am 16 20 mph 1022.6mb 47f 45f
10:50am 13 20 mph 1022.6mb - 45f
10:40am 13 18 mph 1022.5mb - 44f
10:30am 16 22 mph 1022.6mb - 44f
10:20am 13 18 mph 1022.6mb - 44f
10:10am 18 25 mph 1022.6mb - 44f
10:00am 18 29 mph 1022.7mb 47f 44f
9:50am 16 27 mph 1022.6mb - 44f
9:40am 16 22 mph 1022.4mb - 44f
9:30am 18 25 mph 1022.3mb - 44f
9:20am 16 25 mph 1022.5mb - 44f
9:10am 13 20 mph 1022.5mb - 44f
9:00am 11 18 mph 1022.7mb 47f 44f
8:50am 13 20 mph 1022.6mb - 43f
8:40am 13 18 mph 1022.4mb - 43f
8:30am 13 16 mph 1022.3mb - 43f
8:20am 13 20 mph 1022mb - 43f
8:10am 13 20 mph 1022mb - 43f
8:00am 13 20 mph 1021.9mb 47f 42f
7:50am 9 16 mph 1021.8mb - 41f
7:40am 9 11 mph 1021.8mb - 41f
7:30am 9 11 mph 1021.7mb - 40f
7:20am 9 11 mph 1021.6mb - 40f
7:10am 9 11 mph 1021.5mb - 40f
7:00am 9 13 mph 1021.3mb 47f 41f
6:50am 11 18 mph 1021.1mb - 41f
6:40am 9 11 mph 1020.9mb - 41f
6:30am 9 13 mph 1020.8mb - 41f
6:20am 7 9 mph 1020.7mb - 41f
6:10am 7 9 mph 1020.6mb - 41f
6:00am 9 13 mph 1020.5mb 47f 42f
5:50am 9 13 mph 1020.4mb - 42f
5:40am 7 9 mph 1020.3mb - 42f
5:30am 7 9 mph 1020.1mb - 41f
5:20am 7 11 mph 1019.9mb - 42f
5:10am 11 18 mph 1019.8mb - 43f
5:00am 13 20 mph 1019.7mb 47f 43f
4:50am 9 11 mph 1019.6mb - 41f
4:40am 9 11 mph 1019.5mb - 43f
4:30am 11 16 mph 1019.3mb - 44f
4:20am 9 16 mph 1019.2mb - 42f
4:10am 9 11 mph 1019.1mb - 42f
4:00am 9 11 mph 1019mb 47f 43f
3:50am 9 16 mph 1018.8mb - 43f
3:40am 9 18 mph 1018.7mb - 43f
3:30am 11 16 mph 1018.7mb - 43f
3:20am 11 13 mph 1018.8mb - 42f